Time;durP1;ratioP1;P1;durP2;ratioP2;P2;SDS_P1;SDS_P2;PMS_P1;PMS_P2;Temp;Humidity;BMP_temperature;BMP_pressure;BME280_temperature;BME280_humidity;BME280_pressure;Samples;Min_cycle;Max_cycle;Signal;HPM_P1;HPM_P2
2022/01/15 00:01:32;;;;;;;30.40;22.38;;;;;;;;;;5051413;28;20111;-60
2022/01/15 00:03:58;;;;;;;29.90;21.85;;;;;;;;;;5050431;28;20130;-60
2022/01/15 00:06:24;;;;;;;31.23;22.00;;;;;;;;;;5051240;28;20057;-60
2022/01/15 00:08:50;;;;;;;29.48;21.42;;;;;;;;;;5051452;28;20049;-60
2022/01/15 00:11:17;;;;;;;29.45;22.15;;;;;;;;;;5050540;28;20045;-60
2022/01/15 00:13:45;;;;;;;29.30;21.00;;;;;;;;;;5051299;28;20446;-60
2022/01/15 00:16:25;;;;;;;28.55;21.58;;;;;;;;;;5051295;28;20103;-60
2022/01/15 00:19:04;;;;;;;28.73;21.52;;;;;;;;;;5050321;28;20554;-60
2022/01/15 00:21:31;;;;;;;29.73;21.50;;;;;;;;;;5051475;28;20102;-60
2022/01/15 00:23:57;;;;;;;29.52;21.42;;;;;;;;;;5050376;28;20041;-60
2022/01/15 00:26:23;;;;;;;30.75;21.48;;;;;;;;;;5051046;28;20091;-60
2022/01/15 00:28:49;;;;;;;29.00;20.65;;;;;;;;;;5050833;28;20049;-60
2022/01/15 00:31:17;;;;;;;29.30;21.05;;;;;;;;;;5050370;28;20053;-61
2022/01/15 00:33:43;;;;;;;28.17;20.73;;;;;;;;;;5051017;28;20401;-60
2022/01/15 00:36:09;;;;;;;28.17;20.00;;;;;;;;;;5051092;28;20103;-60
2022/01/15 00:38:36;;;;;;;27.40;19.83;;;;;;;;;;5050316;28;20660;-60
2022/01/15 00:41:02;;;;;;;30.27;21.67;;;;;;;;;;5050861;28;20423;-60
2022/01/15 00:43:28;;;;;;;28.98;20.75;;;;;;;;;;5050819;28;20822;-61
2022/01/15 00:45:55;;;;;;;27.95;20.33;;;;;;;;;;5049930;28;20049;-60
2022/01/15 00:48:23;;;;;;;28.83;21.27;;;;;;;;;;5051163;28;20048;-60
2022/01/15 00:50:49;;;;;;;28.50;20.35;;;;;;;;;;5053533;28;20458;-61
2022/01/15 00:53:15;;;;;;;28.92;20.80;;;;;;;;;;5054288;28;20115;-61
2022/01/15 00:55:42;;;;;;;27.08;19.98;;;;;;;;;;5054788;28;20045;-60
2022/01/15 00:58:08;;;;;;;29.95;20.65;;;;;;;;;;5054868;28;20048;-60
2022/01/15 01:00:34;;;;;;;29.15;20.50;;;;;;;;;;5054273;28;20135;-61
2022/01/15 01:03:00;;;;;;;27.85;19.58;;;;;;;;;;5054772;28;20110;-61
2022/01/15 01:05:28;;;;;;;28.33;20.23;;;;;;;;;;5054592;28;20057;-61
2022/01/15 01:07:56;;;;;;;26.65;19.35;;;;;;;;;;5053733;28;20091;-61
2022/01/15 01:10:48;;;;;;;26.80;19.13;;;;;;;;;;5054864;28;20051;-60
2022/01/15 01:13:40;;;;;;;27.35;19.27;;;;;;;;;;5054215;28;20415;-61
2022/01/15 01:22:21;;;;;;;27.67;18.70;;;;;;;;;;5053890;28;20075;-60
2022/01/15 01:24:34;;;;;;;25.20;18.00;;;;;;;;;;5054392;28;20041;-60
2022/01/15 01:27:04;;;;;;;28.67;19.00;;;;;;;;;;5053652;28;20123;-60
2022/01/15 01:29:46;;;;;;;24.83;17.80;;;;;;;;;;5054617;28;20045;-60
2022/01/15 01:32:28;;;;;;;26.15;18.08;;;;;;;;;;5054398;28;20053;-60
2022/01/15 01:34:54;;;;;;;25.75;18.17;;;;;;;;;;5053397;28;20045;-60
2022/01/15 01:37:31;;;;;;;31.15;19.40;;;;;;;;;;5054118;28;20052;-60
2022/01/15 01:40:15;;;;;;;24.77;17.88;;;;;;;;;;5054004;28;20518;-60
2022/01/15 01:42:44;;;;;;;26.02;17.33;;;;;;;;;;5053502;28;20068;-61
2022/01/15 01:45:13;;;;;;;26.63;18.35;;;;;;;;;;5054057;28;20479;-61
2022/01/15 01:47:41;;;;;;;24.83;17.50;;;;;;;;;;5054143;28;20049;-61
2022/01/15 01:50:09;;;;;;;23.55;16.95;;;;;;;;;;5053196;28;20049;-60
2022/01/15 01:52:37;;;;;;;26.38;17.90;;;;;;;;;;5054134;28;20045;-60
2022/01/15 01:55:03;;;;;;;25.13;16.55;;;;;;;;;;5053830;28;20056;-60
2022/01/15 01:57:30;;;;;;;24.92;16.88;;;;;;;;;;5053199;28;20484;-61
2022/01/15 01:59:56;;;;;;;25.60;17.90;;;;;;;;;;5053473;28;20041;-61
2022/01/15 02:02:22;;;;;;;24.67;17.20;;;;;;;;;;5052789;28;20480;-60
2022/01/15 02:04:48;;;;;;;23.88;16.95;;;;;;;;;;5053424;28;20049;-61
2022/01/15 02:07:14;;;;;;;23.23;16.02;;;;;;;;;;5053251;28;20103;-61
2022/01/15 02:09:43;;;;;;;23.02;15.27;;;;;;;;;;5053094;28;20087;-61
2022/01/15 02:12:09;;;;;;;23.42;16.05;;;;;;;;;;5053643;28;20045;-61
2022/01/15 02:14:36;;;;;;;22.63;15.45;;;;;;;;;;5053665;28;20049;-61
2022/01/15 02:17:02;;;;;;;24.95;16.10;;;;;;;;;;5052447;28;20045;-60
2022/01/15 02:19:31;;;;;;;23.95;15.73;;;;;;;;;;5053644;28;20463;-60
2022/01/15 02:24:41;;;;;;;22.83;15.88;;;;;;;;;;5052774;28;20515;-60
2022/01/15 02:27:07;;;;;;;21.05;14.93;;;;;;;;;;5053117;28;20052;-61
2022/01/15 02:29:33;;;;;;;23.42;15.52;;;;;;;;;;5053322;28;20082;-61
2022/01/15 02:32:00;;;;;;;22.80;15.20;;;;;;;;;;5052256;28;20122;-60
2022/01/15 02:34:26;;;;;;;21.80;14.50;;;;;;;;;;5053454;28;20123;-60
2022/01/15 02:36:53;;;;;;;21.33;15.00;;;;;;;;;;5053015;28;20098;-60
2022/01/15 02:39:19;;;;;;;23.17;14.88;;;;;;;;;;5052453;28;20049;-60
2022/01/15 02:41:46;;;;;;;24.48;15.30;;;;;;;;;;5052926;28;20053;-60
2022/01/15 02:44:16;;;;;;;23.00;15.18;;;;;;;;;;5052713;28;20045;-60
2022/01/15 02:49:26;;;;;;;21.02;14.35;;;;;;;;;;5052901;28;20048;-61
2022/01/15 02:51:54;;;;;;;24.13;15.35;;;;;;;;;;5052034;28;20111;-61
2022/01/15 02:54:20;;;;;;;22.75;14.68;;;;;;;;;;5052637;28;20091;-61
2022/01/15 02:56:46;;;;;;;22.33;14.20;;;;;;;;;;5052379;28;20484;-60
2022/01/15 02:59:17;;;;;;;22.48;15.15;;;;;;;;;;5051767;28;20542;-60
2022/01/15 03:01:43;;;;;;;22.83;14.38;;;;;;;;;;5052482;28;20139;-60
2022/01/15 03:04:09;;;;;;;20.92;14.23;;;;;;;;;;5052669;28;20041;-61
2022/01/15 03:06:35;;;;;;;22.73;14.75;;;;;;;;;;5051535;28;20057;-60
2022/01/15 03:09:03;;;;;;;23.40;14.98;;;;;;;;;;5052170;28;20820;-60
2022/01/15 03:11:29;;;;;;;22.92;14.80;;;;;;;;;;5052927;28;20052;-61
2022/01/15 03:13:56;;;;;;;22.95;14.98;;;;;;;;;;5050966;28;20052;-60
2022/01/15 03:16:22;;;;;;;24.05;15.15;;;;;;;;;;5052501;28;20546;-61
2022/01/15 03:18:49;;;;;;;22.23;14.40;;;;;;;;;;5052064;28;20088;-60
2022/01/15 03:21:15;;;;;;;21.85;14.48;;;;;;;;;;5051589;28;20041;-60
2022/01/15 03:23:42;;;;;;;24.02;14.93;;;;;;;;;;5052096;28;20049;-60
2022/01/15 03:26:12;;;;;;;23.02;14.85;;;;;;;;;;5052262;28;20049;-61
2022/01/15 03:28:38;;;;;;;25.60;15.65;;;;;;;;;;5051765;28;20053;-61
2022/01/15 03:31:04;;;;;;;22.88;14.70;;;;;;;;;;5051947;28;20049;-61
2022/01/15 03:33:30;;;;;;;22.05;14.43;;;;;;;;;;5052075;28;20049;-61
2022/01/15 03:35:57;;;;;;;23.27;14.93;;;;;;;;;;5051012;28;20048;-61
2022/01/15 03:38:23;;;;;;;23.17;14.20;;;;;;;;;;5051768;28;20045;-61
2022/01/15 03:40:51;;;;;;;20.60;13.55;;;;;;;;;;5051214;28;20087;-60
2022/01/15 03:43:19;;;;;;;22.73;14.65;;;;;;;;;;5051864;28;20095;-61
2022/01/15 03:45:45;;;;;;;21.95;13.90;;;;;;;;;;5051915;28;20049;-60
2022/01/15 03:48:11;;;;;;;21.60;14.02;;;;;;;;;;5051134;28;20045;-60
2022/01/15 03:50:38;;;;;;;22.92;13.68;;;;;;;;;;5051858;28;20048;-60
2022/01/15 03:53:04;;;;;;;19.27;12.77;;;;;;;;;;5051324;28;20049;-60
2022/01/15 03:55:30;;;;;;;22.45;14.25;;;;;;;;;;5050964;28;20484;-61
2022/01/15 03:57:57;;;;;;;21.33;13.30;;;;;;;;;;5051470;28;20095;-60
2022/01/15 04:00:25;;;;;;;23.08;14.65;;;;;;;;;;5051535;28;20048;-60
2022/01/15 04:02:52;;;;;;;21.63;13.35;;;;;;;;;;5050696;28;20044;-60
2022/01/15 04:05:19;;;;;;;22.08;13.63;;;;;;;;;;5051323;28;20071;-61
2022/01/15 04:07:45;;;;;;;22.08;13.65;;;;;;;;;;5051568;28;20135;-60
2022/01/15 04:10:12;;;;;;;22.30;13.65;;;;;;;;;;5050831;28;20500;-60
2022/01/15 04:12:39;;;;;;;20.83;13.00;;;;;;;;;;5051689;28;20095;-61
2022/01/15 04:15:06;;;;;;;21.08;12.95;;;;;;;;;;5050997;28;20098;-60
2022/01/15 04:17:33;;;;;;;18.27;11.90;;;;;;;;;;5050711;28;20049;-60
2022/01/15 04:19:59;;;;;;;19.83;12.77;;;;;;;;;;5050880;28;20095;-60
2022/01/15 04:22:26;;;;;;;20.20;12.32;;;;;;;;;;5051434;28;20045;-60
2022/01/15 04:24:52;;;;;;;18.90;12.60;;;;;;;;;;5049532;28;20049;-60
2022/01/15 04:27:21;;;;;;;18.55;12.85;;;;;;;;;;5051018;28;20492;-60
2022/01/15 04:29:48;;;;;;;20.88;12.70;;;;;;;;;;5050900;28;20045;-60
2022/01/15 04:32:14;;;;;;;18.67;11.32;;;;;;;;;;5050331;28;20119;-60
2022/01/15 04:34:42;;;;;;;17.92;11.75;;;;;;;;;;5050989;28;20095;-60
2022/01/15 04:37:12;;;;;;;18.52;11.68;;;;;;;;;;5050516;28;20045;-60
2022/01/15 04:39:39;;;;;;;19.52;12.38;;;;;;;;;;5051138;28;20399;-60
2022/01/15 04:42:06;;;;;;;17.98;11.27;;;;;;;;;;5051072;28;20072;-60
2022/01/15 04:44:32;;;;;;;19.25;11.23;;;;;;;;;;5050341;28;20115;-60
2022/01/15 04:46:59;;;;;;;19.02;12.05;;;;;;;;;;5050833;28;20068;-60
2022/01/15 04:49:25;;;;;;;18.38;11.82;;;;;;;;;;5050761;28;20076;-60
2022/01/15 04:51:52;;;;;;;17.45;10.90;;;;;;;;;;5050263;28;20389;-60
2022/01/15 04:54:19;;;;;;;18.52;11.38;;;;;;;;;;5050698;28;20045;-60
2022/01/15 04:56:45;;;;;;;15.07;10.13;;;;;;;;;;5050686;28;20049;-60
2022/01/15 04:59:11;;;;;;;16.63;11.27;;;;;;;;;;5049936;28;20041;-60
2022/01/15 05:01:37;;;;;;;17.98;10.82;;;;;;;;;;5050822;28;20041;-60
2022/01/15 05:04:04;;;;;;;15.48;10.85;;;;;;;;;;5050611;28;20045;-61
2022/01/15 05:06:30;;;;;;;17.13;10.70;;;;;;;;;;5049870;28;20103;-60
2022/01/15 05:09:04;;;;;;;17.00;10.95;;;;;;;;;;5050658;28;20099;-61
2022/01/15 05:11:42;;;;;;;18.50;11.63;;;;;;;;;;5050854;28;20047;-60
2022/01/15 05:14:09;;;;;;;17.17;10.95;;;;;;;;;;5049985;28;20416;-60
2022/01/15 05:16:35;;;;;;;18.58;11.15;;;;;;;;;;5050932;28;20049;-60
2022/01/15 05:19:01;;;;;;;16.75;10.98;;;;;;;;;;5050625;28;20049;-61
2022/01/15 05:21:27;;;;;;;15.57;10.70;;;;;;;;;;5049750;28;20477;-60
2022/01/15 05:23:53;;;;;;;20.25;10.85;;;;;;;;;;5050477;28;20049;-60
2022/01/15 05:26:21;;;;;;;18.13;11.30;;;;;;;;;;5049670;28;20098;-61
2022/01/15 05:28:47;;;;;;;16.48;10.93;;;;;;;;;;5050256;28;20045;-61
2022/01/15 05:31:13;;;;;;;19.27;11.88;;;;;;;;;;5050556;28;20045;-61
2022/01/15 05:33:39;;;;;;;19.23;11.63;;;;;;;;;;5049851;28;20534;-61
2022/01/15 05:36:06;;;;;;;16.33;11.27;;;;;;;;;;5051586;28;20049;-61
2022/01/15 05:38:32;;;;;;;18.30;11.38;;;;;;;;;;5054354;28;20118;-60
2022/01/15 05:40:58;;;;;;;17.95;11.88;;;;;;;;;;5053116;28;20462;-61
2022/01/15 05:43:26;;;;;;;18.65;11.77;;;;;;;;;;5054247;28;20543;-60
2022/01/15 05:45:52;;;;;;;18.85;11.80;;;;;;;;;;5053915;28;20095;-60
2022/01/15 05:48:18;;;;;;;19.98;12.32;;;;;;;;;;5053527;28;20049;-60
2022/01/15 05:50:44;;;;;;;18.80;12.27;;;;;;;;;;5053811;28;20072;-60
2022/01/15 05:53:11;;;;;;;18.70;12.73;;;;;;;;;;5054058;28;20041;-61
2022/01/15 05:55:37;;;;;;;17.48;12.07;;;;;;;;;;5053175;28;20116;-60
2022/01/15 05:58:03;;;;;;;18.55;12.48;;;;;;;;;;5053592;28;20056;-60
2022/01/15 06:00:31;;;;;;;19.98;13.32;;;;;;;;;;5053738;28;20092;-60
2022/01/15 06:02:57;;;;;;;18.50;12.23;;;;;;;;;;5052839;28;20538;-60
2022/01/15 06:05:23;;;;;;;20.88;12.52;;;;;;;;;;5053664;28;20060;-60
2022/01/15 06:07:49;;;;;;;19.55;12.90;;;;;;;;;;5054293;28;20049;-61
2022/01/15 06:10:16;;;;;;;20.15;12.70;;;;;;;;;;5052609;28;20476;-61
2022/01/15 06:12:44;;;;;;;18.52;12.95;;;;;;;;;;5053501;28;20513;-61
2022/01/15 06:15:11;;;;;;;18.55;12.43;;;;;;;;;;5053659;28;20095;-61
2022/01/15 06:17:39;;;;;;;19.35;12.65;;;;;;;;;;5052982;28;20044;-60
2022/01/15 06:20:06;;;;;;;19.77;13.38;;;;;;;;;;5053261;28;20060;-61
2022/01/15 06:22:32;;;;;;;18.67;13.15;;;;;;;;;;5053016;28;20045;-61
2022/01/15 06:24:58;;;;;;;19.77;13.07;;;;;;;;;;5053120;28;20095;-60
2022/01/15 06:27:24;;;;;;;18.70;12.98;;;;;;;;;;5053017;28;20459;-60
2022/01/15 06:29:51;;;;;;;20.30;13.18;;;;;;;;;;5052430;28;20045;-60
2022/01/15 06:32:17;;;;;;;19.98;13.75;;;;;;;;;;5053113;28;20103;-61
2022/01/15 06:34:44;;;;;;;18.05;12.85;;;;;;;;;;5053085;28;20111;-61
2022/01/15 06:37:11;;;;;;;19.00;13.15;;;;;;;;;;5052331;28;20041;-61
2022/01/15 06:39:37;;;;;;;17.63;12.77;;;;;;;;;;5053172;28;20095;-60
2022/01/15 06:42:03;;;;;;;20.33;12.85;;;;;;;;;;5053265;28;20169;-59
2022/01/15 06:44:29;;;;;;;18.88;13.63;;;;;;;;;;5052466;28;20048;-60
2022/01/15 06:46:56;;;;;;;21.60;14.50;;;;;;;;;;5051980;28;20045;-59
2022/01/15 06:49:22;;;;;;;20.52;14.20;;;;;;;;;;5052693;28;20094;-59
2022/01/15 06:51:50;;;;;;;18.30;13.35;;;;;;;;;;5051864;28;20049;-59
2022/01/15 06:54:16;;;;;;;20.48;13.75;;;;;;;;;;5052702;28;20041;-59
2022/01/15 06:56:42;;;;;;;18.63;12.75;;;;;;;;;;5052660;28;20044;-58
2022/01/15 06:59:08;;;;;;;19.70;13.95;;;;;;;;;;5051868;28;20494;-59
2022/01/15 07:01:35;;;;;;;19.52;13.48;;;;;;;;;;5032735;28;20049;-59
2022/01/15 07:04:01;;;;;;;18.63;13.45;;;;;;;;;;5032587;28;20111;-59
2022/01/15 07:06:27;;;;;;;20.98;14.13;;;;;;;;;;5031720;28;20123;-60
2022/01/15 07:08:54;;;;;;;17.58;12.75;;;;;;;;;;5032245;28;20100;-60
2022/01/15 07:11:21;;;;;;;19.58;12.88;;;;;;;;;;5032907;28;20049;-59
2022/01/15 07:13:47;;;;;;;19.13;13.77;;;;;;;;;;5031584;28;20053;-59
2022/01/15 07:16:13;;;;;;;20.02;14.00;;;;;;;;;;5032310;28;20500;-59
2022/01/15 07:18:39;;;;;;;17.58;13.35;;;;;;;;;;5032568;28;20065;-59
2022/01/15 07:21:06;;;;;;;18.02;13.27;;;;;;;;;;5031822;28;20485;-59
2022/01/15 07:23:32;;;;;;;17.55;13.07;;;;;;;;;;5032450;28;20378;-59
2022/01/15 07:25:59;;;;;;;17.27;12.73;;;;;;;;;;5031200;28;20053;-59
2022/01/15 07:28:27;;;;;;;18.08;13.23;;;;;;;;;;5032363;28;20045;-59
2022/01/15 07:30:54;;;;;;;18.23;13.18;;;;;;;;;;5032161;28;20129;-58
2022/01/15 07:33:20;;;;;;;16.33;12.55;;;;;;;;;;5049743;28;20558;-59
2022/01/15 07:35:46;;;;;;;17.98;13.23;;;;;;;;;;5052006;28;20071;-59
2022/01/15 07:38:13;;;;;;;17.23;12.80;;;;;;;;;;5052136;28;20190;-59
2022/01/15 07:40:39;;;;;;;17.10;12.75;;;;;;;;;;5051492;28;20049;-58
2022/01/15 07:43:06;;;;;;;19.30;13.75;;;;;;;;;;5051675;28;20053;-59
2022/01/15 07:45:33;;;;;;;19.15;13.52;;;;;;;;;;5052080;28;20044;-58
2022/01/15 07:47:59;;;;;;;18.17;13.18;;;;;;;;;;5050693;28;20056;-59
2022/01/15 07:50:25;;;;;;;16.85;12.57;;;;;;;;;;5051748;28;20049;-58
2022/01/15 07:52:52;;;;;;;16.27;12.15;;;;;;;;;;5051543;28;20049;-59
2022/01/15 07:55:18;;;;;;;17.95;13.05;;;;;;;;;;5051160;28;20099;-58
2022/01/15 07:57:45;;;;;;;17.55;13.02;;;;;;;;;;5051246;28;20492;-59
2022/01/15 08:00:13;;;;;;;16.60;12.88;;;;;;;;;;5051711;28;20041;-59
2022/01/15 08:02:39;;;;;;;18.05;12.98;;;;;;;;;;5050936;28;20131;-59
2022/01/15 08:05:06;;;;;;;16.40;13.25;;;;;;;;;;5051084;28;20048;-59
2022/01/15 08:07:32;;;;;;;18.23;13.13;;;;;;;;;;5051657;28;20182;-59
2022/01/15 08:09:58;;;;;;;20.20;14.02;;;;;;;;;;5050606;28;20045;-59
2022/01/15 08:12:25;;;;;;;17.75;13.27;;;;;;;;;;5051581;28;20064;-59
2022/01/15 08:14:51;;;;;;;18.42;13.07;;;;;;;;;;5051341;28;20431;-59
2022/01/15 08:17:19;;;;;;;16.55;12.88;;;;;;;;;;5050527;28;20051;-59
2022/01/15 08:19:45;;;;;;;17.98;13.60;;;;;;;;;;5051082;28;20450;-59
2022/01/15 08:22:11;;;;;;;17.13;12.90;;;;;;;;;;5050770;28;20061;-59
2022/01/15 08:24:38;;;;;;;17.73;13.60;;;;;;;;;;5051561;28;20049;-59
2022/01/15 08:27:04;;;;;;;17.48;13.32;;;;;;;;;;5050942;28;20041;-59
2022/01/15 08:29:31;;;;;;;17.60;13.02;;;;;;;;;;5050466;28;20562;-58
2022/01/15 08:31:57;;;;;;;18.02;13.45;;;;;;;;;;5050755;28;20044;-58
2022/01/15 08:34:25;;;;;;;20.65;13.27;;;;;;;;;;5051314;28;20118;-59
2022/01/15 08:36:51;;;;;;;18.90;14.18;;;;;;;;;;5050261;28;20381;-58
2022/01/15 08:39:17;;;;;;;18.45;13.48;;;;;;;;;;5051414;28;20044;-59
2022/01/15 08:41:48;;;;;;;19.42;14.23;;;;;;;;;;5051022;28;20098;-59
2022/01/15 08:44:14;;;;;;;17.80;14.07;;;;;;;;;;5050321;28;20445;-59
2022/01/15 08:46:41;;;;;;;19.40;13.25;;;;;;;;;;5051143;28;20045;-59
2022/01/15 08:49:07;;;;;;;19.98;13.07;;;;;;;;;;5050991;28;20045;-59
2022/01/15 08:51:36;;;;;;;18.20;13.20;;;;;;;;;;5050649;28;20095;-60
2022/01/15 08:54:02;;;;;;;16.60;11.77;;;;;;;;;;5050675;28;20516;-60
2022/01/15 08:56:28;;;;;;;19.55;13.18;;;;;;;;;;5051057;28;20476;-59
2022/01/15 08:58:55;;;;;;;18.83;12.98;;;;;;;;;;5049914;28;20044;-59
2022/01/15 09:01:21;;;;;;;19.73;13.50;;;;;;;;;;5050939;28;20045;-59
2022/01/15 09:03:47;;;;;;;18.38;13.23;;;;;;;;;;5050692;28;20103;-59
2022/01/15 09:06:13;;;;;;;20.58;13.80;;;;;;;;;;5050345;28;20052;-60
2022/01/15 09:08:42;;;;;;;22.88;13.48;;;;;;;;;;5050950;28;20098;-60
2022/01/15 09:11:08;;;;;;;20.48;14.50;;;;;;;;;;5052734;28;20051;-60
2022/01/15 09:13:34;;;;;;;22.52;14.63;;;;;;;;;;5054235;28;20128;-59
2022/01/15 09:16:02;;;;;;;24.33;13.27;;;;;;;;;;5052903;28;20546;-59
2022/01/15 09:18:29;;;;;;;19.42;13.05;;;;;;;;;;5033774;28;20481;-58
2022/01/15 09:20:55;;;;;;;20.98;14.93;;;;;;;;;;5034665;28;20049;-58
2022/01/15 09:23:22;;;;;;;19.80;14.23;;;;;;;;;;5034973;28;20049;-58
2022/01/15 09:25:50;;;;;;;20.58;15.07;;;;;;;;;;5034022;28;20042;-58
2022/01/15 09:31:00;;;;;;;21.05;13.30;;;;;;;;;;5034493;28;20056;-60
2022/01/15 09:33:27;;;;;;;20.67;14.23;;;;;;;;;;5053013;28;20080;-59
2022/01/15 09:35:53;;;;;;;17.45;12.35;;;;;;;;;;5054532;28;20049;-59
2022/01/15 09:38:19;;;;;;;22.55;13.75;;;;;;;;;;5054481;28;20488;-60
2022/01/15 09:40:45;;;;;;;20.45;14.07;;;;;;;;;;5053324;28;20044;-60
2022/01/15 09:43:14;;;;;;;21.70;14.90;;;;;;;;;;5054345;28;20057;-60
2022/01/15 09:45:40;;;;;;;20.95;14.00;;;;;;;;;;5054562;28;20073;-60
2022/01/15 09:48:07;;;;;;;22.25;15.10;;;;;;;;;;5053315;28;20102;-60
2022/01/15 09:50:35;;;;;;;20.92;13.80;;;;;;;;;;5054191;28;20480;-60
2022/01/15 09:53:01;;;;;;;23.73;14.45;;;;;;;;;;5053959;28;20056;-60
2022/01/15 09:55:28;;;;;;;24.00;15.32;;;;;;;;;;5053293;28;20099;-60
2022/01/15 09:57:54;;;;;;;24.00;15.50;;;;;;;;;;5054124;28;20079;-60
2022/01/15 10:00:23;;;;;;;26.42;16.50;;;;;;;;;;5054297;28;20045;-59
2022/01/15 10:02:50;;;;;;;23.88;15.15;;;;;;;;;;5053037;28;20048;-60
2022/01/15 10:05:17;;;;;;;24.63;16.00;;;;;;;;;;5053733;28;20145;-60
2022/01/15 10:07:54;;;;;;;26.02;16.13;;;;;;;;;;5053313;28;20053;-59
2022/01/15 10:10:21;;;;;;;22.35;15.23;;;;;;;;;;5054090;28;20049;-60
2022/01/15 10:12:47;;;;;;;25.48;15.93;;;;;;;;;;5053747;28;20090;-60
2022/01/15 10:15:13;;;;;;;26.30;16.63;;;;;;;;;;5052947;28;20574;-60
2022/01/15 10:17:41;;;;;;;24.00;15.77;;;;;;;;;;5053788;28;20570;-60
2022/01/15 10:20:08;;;;;;;25.85;16.75;;;;;;;;;;5053595;28;20053;-60
2022/01/15 10:22:35;;;;;;;25.92;17.23;;;;;;;;;;5051423;28;20041;-60
2022/01/15 10:25:02;;;;;;;26.17;16.73;;;;;;;;;;5053490;28;20557;-60
2022/01/15 10:27:30;;;;;;;25.83;17.15;;;;;;;;;;5053562;28;20530;-60
2022/01/15 10:29:59;;;;;;;26.10;16.85;;;;;;;;;;5052168;28;20103;-60
2022/01/15 10:32:26;;;;;;;26.10;16.20;;;;;;;;;;5053944;28;20091;-60
2022/01/15 10:34:53;;;;;;;24.75;16.30;;;;;;;;;;5052938;28;20119;-59
2022/01/15 10:37:21;;;;;;;26.60;17.02;;;;;;;;;;5052611;28;20103;-59
2022/01/15 10:39:54;;;;;;;26.10;17.40;;;;;;;;;;5053061;28;20045;-60
2022/01/15 10:42:23;;;;;;;26.85;17.23;;;;;;;;;;5053453;28;20106;-60
2022/01/15 10:44:50;;;;;;;27.80;17.95;;;;;;;;;;5052135;28;20052;-60
2022/01/15 10:47:16;;;;;;;25.75;16.63;;;;;;;;;;5053186;28;20041;-60
2022/01/15 10:49:43;;;;;;;24.38;16.35;;;;;;;;;;5052094;28;20045;-59
2022/01/15 10:52:15;;;;;;;27.58;17.50;;;;;;;;;;5053116;28;20488;-60
2022/01/15 10:54:52;;;;;;;28.15;17.85;;;;;;;;;;5053185;28;20135;-60
2022/01/15 10:57:19;;;;;;;27.95;17.90;;;;;;;;;;5052403;28;20459;-60
2022/01/15 10:59:54;;;;;;;25.23;17.13;;;;;;;;;;5052530;28;20041;-60
2022/01/15 11:02:21;;;;;;;27.30;17.65;;;;;;;;;;5053615;28;20044;-59
2022/01/15 11:04:48;;;;;;;27.02;17.88;;;;;;;;;;5051882;28;20078;-59
2022/01/15 11:07:16;;;;;;;28.42;17.63;;;;;;;;;;5052784;28;20067;-60
2022/01/15 11:09:43;;;;;;;28.20;18.52;;;;;;;;;;5052295;28;20099;-60
2022/01/15 11:12:10;;;;;;;25.77;16.58;;;;;;;;;;5052095;28;20114;-60
2022/01/15 11:14:36;;;;;;;24.50;16.02;;;;;;;;;;5052726;28;20084;-60
2022/01/15 11:17:03;;;;;;;26.50;17.33;;;;;;;;;;5052428;28;20049;-60
2022/01/15 11:19:30;;;;;;;26.33;17.48;;;;;;;;;;5051844;28;20079;-60
2022/01/15 11:21:57;;;;;;;27.38;17.52;;;;;;;;;;5051871;28;20639;-60
2022/01/15 11:24:25;;;;;;;28.33;18.38;;;;;;;;;;5052449;28;20458;-60
2022/01/15 11:26:55;;;;;;;27.27;17.98;;;;;;;;;;5051303;28;20175;-60
2022/01/15 11:29:21;;;;;;;26.23;17.92;;;;;;;;;;5052262;28;20430;-60
2022/01/15 11:31:50;;;;;;;28.55;18.48;;;;;;;;;;5051691;28;20780;-60
2022/01/15 11:34:20;;;;;;;26.35;17.98;;;;;;;;;;5051296;28;20104;-59
2022/01/15 11:36:46;;;;;;;25.80;17.58;;;;;;;;;;5051852;28;20107;-60
2022/01/15 11:39:13;;;;;;;27.98;18.45;;;;;;;;;;5051435;28;20164;-60
2022/01/15 11:41:44;;;;;;;27.25;18.20;;;;;;;;;;5051977;28;20450;-59
2022/01/15 11:44:13;;;;;;;29.13;19.52;;;;;;;;;;5052468;28;20049;-60
2022/01/15 11:46:40;;;;;;;27.15;18.40;;;;;;;;;;5051218;28;20041;-60
2022/01/15 11:49:25;;;;;;;28.08;18.65;;;;;;;;;;5051805;28;20074;-60
2022/01/15 11:51:51;;;;;;;27.45;18.48;;;;;;;;;;5051488;28;20110;-60
2022/01/15 11:54:18;;;;;;;28.60;18.70;;;;;;;;;;5051107;28;20045;-59
2022/01/15 11:56:46;;;;;;;28.17;19.08;;;;;;;;;;5051635;28;20041;-59
2022/01/15 11:59:31;;;;;;;28.25;18.67;;;;;;;;;;5051875;28;20060;-59
2022/01/15 12:01:59;;;;;;;28.13;18.33;;;;;;;;;;5050553;28;20098;-59
2022/01/15 12:04:26;;;;;;;28.35;19.33;;;;;;;;;;5051800;28;20072;-60
2022/01/15 12:07:11;;;;;;;26.45;18.48;;;;;;;;;;5051108;28;20045;-59
2022/01/15 12:09:38;;;;;;;27.10;18.45;;;;;;;;;;5051615;28;20586;-60
2022/01/15 12:12:30;;;;;;;27.33;18.38;;;;;;;;;;5051321;28;20061;-60
2022/01/15 12:14:58;;;;;;;29.13;18.88;;;;;;;;;;5050341;28;20132;-60
2022/01/15 12:17:25;;;;;;;27.42;18.27;;;;;;;;;;5051593;28;20385;-60
2022/01/15 12:19:52;;;;;;;26.75;18.17;;;;;;;;;;5051276;28;20049;-60
2022/01/15 12:22:33;;;;;;;25.85;17.92;;;;;;;;;;5050593;28;20048;-59
2022/01/15 12:25:00;;;;;;;26.50;18.08;;;;;;;;;;5051358;28;20095;-60
2022/01/15 12:27:28;;;;;;;28.83;18.95;;;;;;;;;;5051270;28;20045;-60
2022/01/15 12:30:02;;;;;;;27.08;17.25;;;;;;;;;;5050279;28;20504;-60
2022/01/15 12:32:30;;;;;;;25.77;17.27;;;;;;;;;;5051252;28;20041;-59
2022/01/15 12:34:57;;;;;;;24.13;16.35;;;;;;;;;;5051133;28;20041;-60
2022/01/15 12:37:23;;;;;;;26.88;18.33;;;;;;;;;;5050491;28;20102;-59
2022/01/15 12:39:49;;;;;;;27.42;17.48;;;;;;;;;;5051009;28;20049;-60
2022/01/15 12:42:17;;;;;;;27.05;17.85;;;;;;;;;;5050563;28;20135;-59
2022/01/15 12:44:46;;;;;;;25.35;17.02;;;;;;;;;;5050544;28;20489;-60
2022/01/15 12:47:12;;;;;;;25.35;16.50;;;;;;;;;;5050845;28;20049;-59
2022/01/15 12:49:39;;;;;;;24.33;16.60;;;;;;;;;;5050410;28;20049;-59
2022/01/15 12:52:11;;;;;;;25.65;16.92;;;;;;;;;;5050870;28;20094;-60
2022/01/15 12:54:37;;;;;;;26.95;18.08;;;;;;;;;;5051165;28;20049;-59
2022/01/15 12:57:04;;;;;;;27.33;17.52;;;;;;;;;;5050192;28;20454;-59
2022/01/15 12:59:30;;;;;;;25.10;16.58;;;;;;;;;;5051012;28;20529;-59
2022/01/15 13:01:57;;;;;;;25.23;16.65;;;;;;;;;;5051023;28;20057;-59
2022/01/15 13:04:24;;;;;;;25.20;17.67;;;;;;;;;;5050404;28;20098;-60
2022/01/15 13:06:57;;;;;;;24.27;16.83;;;;;;;;;;5050604;28;20128;-59
2022/01/15 13:09:24;;;;;;;26.35;17.77;;;;;;;;;;5051296;28;20099;-59
2022/01/15 13:11:57;;;;;;;25.58;17.50;;;;;;;;;;5050161;28;20079;-59
2022/01/15 13:14:23;;;;;;;26.50;16.75;;;;;;;;;;5051443;28;20049;-60
2022/01/15 13:16:49;;;;;;;26.38;17.52;;;;;;;;;;5051166;28;20048;-60
2022/01/15 13:19:17;;;;;;;26.23;18.08;;;;;;;;;;5049981;28;20393;-60
2022/01/15 13:21:45;;;;;;;27.45;18.38;;;;;;;;;;5050777;28;20049;-60
2022/01/15 13:24:11;;;;;;;25.80;17.88;;;;;;;;;;5050936;28;20041;-60
2022/01/15 13:26:39;;;;;;;25.50;17.40;;;;;;;;;;5050230;28;20119;-60
2022/01/15 13:29:06;;;;;;;25.88;16.92;;;;;;;;;;5050395;28;20068;-60
2022/01/15 13:31:34;;;;;;;28.30;18.38;;;;;;;;;;5050011;28;20041;-60
2022/01/15 13:34:07;;;;;;;29.45;18.52;;;;;;;;;;5050429;28;20045;-60
2022/01/15 13:36:34;;;;;;;28.15;18.73;;;;;;;;;;5051119;28;20048;-60
2022/01/15 13:39:01;;;;;;;27.52;18.30;;;;;;;;;;5049845;28;20040;-60
2022/01/15 13:41:31;;;;;;;25.60;17.98;;;;;;;;;;5050854;28;20053;-60
2022/01/15 13:44:03;;;;;;;30.70;18.15;;;;;;;;;;5050249;28;20081;-59
2022/01/15 13:46:30;;;;;;;30.20;18.70;;;;;;;;;;5050065;28;20080;-59
2022/01/15 13:49:00;;;;;;;27.73;18.20;;;;;;;;;;5050256;28;20094;-59
2022/01/15 13:54:13;;;;;;;30.33;18.13;;;;;;;;;;5049993;28;20179;-60
2022/01/15 13:56:41;;;;;;;27.17;18.67;;;;;;;;;;5051352;28;20044;-60
2022/01/15 13:59:09;;;;;;;28.90;18.77;;;;;;;;;;5053609;28;20052;-59
2022/01/15 14:01:36;;;;;;;28.85;19.15;;;;;;;;;;5033707;28;20045;-60
2022/01/15 14:04:21;;;;;;;32.58;20.45;;;;;;;;;;5033931;28;20055;-59
2022/01/15 14:06:47;;;;;;;27.90;17.80;;;;;;;;;;5032948;28;20092;-60
2022/01/15 14:09:15;;;;;;;30.38;19.75;;;;;;;;;;5033897;28;20046;-59
2022/01/15 14:11:54;;;;;;;33.28;21.05;;;;;;;;;;5033816;28;20057;-60
2022/01/15 14:14:20;;;;;;;31.42;19.60;;;;;;;;;;5033031;28;20056;-59
2022/01/15 14:16:51;;;;;;;32.60;20.50;;;;;;;;;;5033707;28;20095;-59
2022/01/15 14:19:39;;;;;;;31.92;20.00;;;;;;;;;;5033626;28;20076;-59
2022/01/15 14:22:21;;;;;;;33.03;20.70;;;;;;;;;;5032844;28;20474;-60
2022/01/15 14:24:50;;;;;;;35.92;21.63;;;;;;;;;;5033428;28;20046;-59
2022/01/15 14:27:17;;;;;;;34.20;21.20;;;;;;;;;;5033786;28;20327;-59
2022/01/15 14:29:43;;;;;;;34.88;21.52;;;;;;;;;;5032492;28;20049;-59
2022/01/15 14:32:10;;;;;;;32.15;21.48;;;;;;;;;;5042363;28;20044;-60
2022/01/15 14:34:36;;;;;;;33.20;20.50;;;;;;;;;;5053234;28;20045;-60
2022/01/15 14:37:02;;;;;;;33.53;21.50;;;;;;;;;;5052540;28;20405;-60